Meadowview, Virginia
Current Conditions -  °F | °C
As of 5:15 PM on Wednesday 28 Jan 2015 (Local Time) from KVJI Reporting Station
Clear Clear  
Wind Chill: 31°   Ceiling: Unl
Heat Index: 37°   Visibility: 10mi
Dew Point: 20°   Wind: 7mph
Humidity: 50%   Direction: 230°SW
Pressure: 30.24"   Gusts: NA
Location:  36.76°N, 81.86°W
Report Text: KVJI 282215Z AUTO 23006KT 10SM CLR 03/M07 A3024 RMK AO2 T00271067
Loading
Personal Weather Stations






























Interactive Weather Map New forecast layout! Learn more

10-Day Weather Forecast

Advertisements
Track Severe Weather on mobile